sensor_id;sensor_type;location;lat;lon;timestamp;P1;durP1;ratioP1;P2;durP2;ratioP2
59263;SDS011;45030;42.720;23.344;2022-11-15T00:01:29;146.57;;;67.57;;
59263;SDS011;45030;42.720;23.344;2022-11-15T00:03:54;129.88;;;60.63;;
59263;SDS011;45030;42.720;23.344;2022-11-15T00:06:19;159.18;;;75.30;;
59263;SDS011;45030;42.720;23.344;2022-11-15T00:08:45;152.43;;;73.35;;
59263;SDS011;45030;42.720;23.344;2022-11-15T00:11:11;196.30;;;85.55;;
59263;SDS011;45030;42.720;23.344;2022-11-15T00:13:36;211.00;;;92.38;;
59263;SDS011;45030;42.720;23.344;2022-11-15T00:16:02;179.27;;;80.15;;
59263;SDS011;45030;42.720;23.344;2022-11-15T00:18:28;141.90;;;69.28;;
59263;SDS011;45030;42.720;23.344;2022-11-15T00:20:53;143.02;;;66.68;;
59263;SDS011;45030;42.720;23.344;2022-11-15T00:23:19;138.27;;;64.35;;
59263;SDS011;45030;42.720;23.344;2022-11-15T00:25:44;152.70;;;74.30;;
59263;SDS011;45030;42.720;23.344;2022-11-15T00:28:09;156.93;;;78.55;;
59263;SDS011;45030;42.720;23.344;2022-11-15T00:30:34;177.57;;;87.47;;
59263;SDS011;45030;42.720;23.344;2022-11-15T00:33:03;183.73;;;87.55;;
59263;SDS011;45030;42.720;23.344;2022-11-15T00:35:30;185.80;;;89.93;;
59263;SDS011;45030;42.720;23.344;2022-11-15T00:37:56;166.27;;;81.97;;
59263;SDS011;45030;42.720;23.344;2022-11-15T00:40:21;182.52;;;85.85;;
59263;SDS011;45030;42.720;23.344;2022-11-15T00:42:46;165.65;;;78.25;;
59263;SDS011;45030;42.720;23.344;2022-11-15T00:45:12;164.93;;;72.80;;
59263;SDS011;45030;42.720;23.344;2022-11-15T00:47:37;155.52;;;73.60;;
59263;SDS011;45030;42.720;23.344;2022-11-15T00:50:02;149.10;;;68.53;;
59263;SDS011;45030;42.720;23.344;2022-11-15T00:52:28;162.57;;;79.65;;
59263;SDS011;45030;42.720;23.344;2022-11-15T00:54:53;159.18;;;77.57;;
59263;SDS011;45030;42.720;23.344;2022-11-15T00:57:18;168.70;;;80.40;;
59263;SDS011;45030;42.720;23.344;2022-11-15T00:59:43;168.10;;;86.25;;
59263;SDS011;45030;42.720;23.344;2022-11-15T01:02:08;151.68;;;73.50;;
59263;SDS011;45030;42.720;23.344;2022-11-15T01:04:34;137.88;;;67.50;;
59263;SDS011;45030;42.720;23.344;2022-11-15T01:06:59;148.77;;;73.45;;
59263;SDS011;45030;42.720;23.344;2022-11-15T01:09:24;140.23;;;71.55;;
59263;SDS011;45030;42.720;23.344;2022-11-15T01:11:49;142.82;;;73.10;;
59263;SDS011;45030;42.720;23.344;2022-11-15T01:14:15;134.43;;;64.18;;
59263;SDS011;45030;42.720;23.344;2022-11-15T01:16:40;140.75;;;68.85;;
59263;SDS011;45030;42.720;23.344;2022-11-15T01:19:05;131.52;;;66.05;;
59263;SDS011;45030;42.720;23.344;2022-11-15T01:21:30;141.95;;;70.43;;
59263;SDS011;45030;42.720;23.344;2022-11-15T01:23:56;148.05;;;72.07;;
59263;SDS011;45030;42.720;23.344;2022-11-15T01:26:21;127.28;;;62.58;;
59263;SDS011;45030;42.720;23.344;2022-11-15T01:28:47;143.70;;;66.65;;
59263;SDS011;45030;42.720;23.344;2022-11-15T01:31:13;128.77;;;64.95;;
59263;SDS011;45030;42.720;23.344;2022-11-15T01:33:38;124.10;;;61.28;;
59263;SDS011;45030;42.720;23.344;2022-11-15T01:36:04;146.35;;;71.10;;
59263;SDS011;45030;42.720;23.344;2022-11-15T01:38:30;157.98;;;71.80;;
59263;SDS011;45030;42.720;23.344;2022-11-15T01:40:55;148.95;;;73.80;;
59263;SDS011;45030;42.720;23.344;2022-11-15T01:45:47;142.07;;;65.78;;
59263;SDS011;45030;42.720;23.344;2022-11-15T01:48:15;134.90;;;61.28;;
59263;SDS011;45030;42.720;23.344;2022-11-15T01:50:40;106.72;;;51.47;;
59263;SDS011;45030;42.720;23.344;2022-11-15T01:53:06;94.50;;;47.85;;
59263;SDS011;45030;42.720;23.344;2022-11-15T01:55:31;88.40;;;45.35;;
59263;SDS011;45030;42.720;23.344;2022-11-15T01:57:58;89.40;;;46.50;;
59263;SDS011;45030;42.720;23.344;2022-11-15T02:00:24;82.63;;;43.70;;
59263;SDS011;45030;42.720;23.344;2022-11-15T02:02:50;83.57;;;44.10;;
59263;SDS011;45030;42.720;23.344;2022-11-15T02:05:15;88.95;;;46.45;;
59263;SDS011;45030;42.720;23.344;2022-11-15T02:07:40;89.45;;;45.78;;
59263;SDS011;45030;42.720;23.344;2022-11-15T02:10:39;84.90;;;44.63;;
59263;SDS011;45030;42.720;23.344;2022-11-15T02:12:57;90.10;;;46.22;;
59263;SDS011;45030;42.720;23.344;2022-11-15T02:15:24;79.65;;;43.33;;
59263;SDS011;45030;42.720;23.344;2022-11-15T02:18:10;84.50;;;44.60;;
59263;SDS011;45030;42.720;23.344;2022-11-15T02:20:41;88.70;;;47.45;;
59263;SDS011;45030;42.720;23.344;2022-11-15T02:31:03;100.43;;;47.42;;
59263;SDS011;45030;42.720;23.344;2022-11-15T02:36:02;106.30;;;50.13;;
59263;SDS011;45030;42.720;23.344;2022-11-15T02:38:40;99.40;;;48.03;;
59263;SDS011;45030;42.720;23.344;2022-11-15T02:41:13;103.43;;;48.85;;
59263;SDS011;45030;42.720;23.344;2022-11-15T02:43:41;106.22;;;48.00;;
59263;SDS011;45030;42.720;23.344;2022-11-15T02:46:24;99.87;;;47.17;;
59263;SDS011;45030;42.720;23.344;2022-11-15T02:49:11;103.65;;;47.85;;
59263;SDS011;45030;42.720;23.344;2022-11-15T02:51:38;107.97;;;49.90;;
59263;SDS011;45030;42.720;23.344;2022-11-15T02:54:04;107.45;;;51.08;;
59263;SDS011;45030;42.720;23.344;2022-11-15T02:56:29;105.38;;;49.70;;
59263;SDS011;45030;42.720;23.344;2022-11-15T03:01:42;103.25;;;47.95;;
59263;SDS011;45030;42.720;23.344;2022-11-15T03:06:42;114.63;;;51.80;;
59263;SDS011;45030;42.720;23.344;2022-11-15T03:11:37;119.60;;;54.08;;
59263;SDS011;45030;42.720;23.344;2022-11-15T03:14:10;105.25;;;48.90;;
59263;SDS011;45030;42.720;23.344;2022-11-15T03:16:48;116.32;;;54.00;;
59263;SDS011;45030;42.720;23.344;2022-11-15T03:21:49;116.93;;;48.22;;
59263;SDS011;45030;42.720;23.344;2022-11-15T03:24:16;119.97;;;53.35;;
59263;SDS011;45030;42.720;23.344;2022-11-15T03:26:42;118.90;;;51.78;;
59263;SDS011;45030;42.720;23.344;2022-11-15T03:29:10;131.55;;;48.30;;
59263;SDS011;45030;42.720;23.344;2022-11-15T03:31:37;116.78;;;46.92;;
59263;SDS011;45030;42.720;23.344;2022-11-15T03:34:19;122.28;;;48.33;;
59263;SDS011;45030;42.720;23.344;2022-11-15T03:36:45;129.00;;;47.47;;
59263;SDS011;45030;42.720;23.344;2022-11-15T03:39:12;137.88;;;49.78;;
59263;SDS011;45030;42.720;23.344;2022-11-15T03:44:10;143.95;;;48.92;;
59263;SDS011;45030;42.720;23.344;2022-11-15T03:46:51;124.03;;;47.67;;
59263;SDS011;45030;42.720;23.344;2022-11-15T03:49:34;126.22;;;45.50;;
59263;SDS011;45030;42.720;23.344;2022-11-15T03:52:00;139.35;;;48.50;;
59263;SDS011;45030;42.720;23.344;2022-11-15T03:54:26;147.23;;;52.05;;
59263;SDS011;45030;42.720;23.344;2022-11-15T03:56:51;129.20;;;48.42;;
59263;SDS011;45030;42.720;23.344;2022-11-15T03:59:17;135.82;;;48.95;;
59263;SDS011;45030;42.720;23.344;2022-11-15T04:01:42;138.98;;;49.28;;
59263;SDS011;45030;42.720;23.344;2022-11-15T04:04:07;133.85;;;55.13;;
59263;SDS011;45030;42.720;23.344;2022-11-15T04:06:32;150.85;;;53.70;;
59263;SDS011;45030;42.720;23.344;2022-11-15T04:08:58;137.98;;;48.00;;
59263;SDS011;45030;42.720;23.344;2022-11-15T04:11:23;186.70;;;47.88;;
59263;SDS011;45030;42.720;23.344;2022-11-15T04:13:48;114.30;;;44.38;;
59263;SDS011;45030;42.720;23.344;2022-11-15T04:16:13;152.63;;;46.97;;
59263;SDS011;45030;42.720;23.344;2022-11-15T04:18:39;106.03;;;46.35;;
59263;SDS011;45030;42.720;23.344;2022-11-15T04:21:04;127.80;;;42.35;;
59263;SDS011;45030;42.720;23.344;2022-11-15T04:23:48;106.93;;;42.75;;
59263;SDS011;45030;42.720;23.344;2022-11-15T04:26:17;125.95;;;41.88;;
59263;SDS011;45030;42.720;23.344;2022-11-15T04:28:43;120.45;;;42.00;;
59263;SDS011;45030;42.720;23.344;2022-11-15T04:31:44;95.15;;;39.92;;
59263;SDS011;45030;42.720;23.344;2022-11-15T04:34:09;91.25;;;38.97;;
59263;SDS011;45030;42.720;23.344;2022-11-15T04:36:34;125.18;;;45.17;;
59263;SDS011;45030;42.720;23.344;2022-11-15T04:39:18;118.28;;;46.50;;
59263;SDS011;45030;42.720;23.344;2022-11-15T04:41:43;109.82;;;48.17;;
59263;SDS011;45030;42.720;23.344;2022-11-15T04:44:08;143.05;;;53.38;;
59263;SDS011;45030;42.720;23.344;2022-11-15T04:46:34;130.15;;;48.95;;
59263;SDS011;45030;42.720;23.344;2022-11-15T04:49:00;108.97;;;44.10;;
59263;SDS011;45030;42.720;23.344;2022-11-15T04:51:25;116.75;;;46.03;;
59263;SDS011;45030;42.720;23.344;2022-11-15T04:53:50;110.70;;;46.85;;
59263;SDS011;45030;42.720;23.344;2022-11-15T04:56:15;109.50;;;45.85;;
59263;SDS011;45030;42.720;23.344;2022-11-15T04:58:41;109.22;;;46.90;;
59263;SDS011;45030;42.720;23.344;2022-11-15T05:01:07;118.30;;;48.47;;
59263;SDS011;45030;42.720;23.344;2022-11-15T05:03:32;159.18;;;53.50;;
59263;SDS011;45030;42.720;23.344;2022-11-15T05:06:16;190.97;;;61.07;;
59263;SDS011;45030;42.720;23.344;2022-11-15T05:08:41;156.02;;;58.08;;
59263;SDS011;45030;42.720;23.344;2022-11-15T05:11:06;123.75;;;53.78;;
59263;SDS011;45030;42.720;23.344;2022-11-15T05:13:32;129.95;;;52.15;;
59263;SDS011;45030;42.720;23.344;2022-11-15T05:15:57;119.90;;;50.25;;
59263;SDS011;45030;42.720;23.344;2022-11-15T05:18:22;120.70;;;50.35;;
59263;SDS011;45030;42.720;23.344;2022-11-15T05:20:47;361.85;;;175.45;;
59263;SDS011;45030;42.720;23.344;2022-11-15T05:23:12;543.00;;;281.90;;
59263;SDS011;45030;42.720;23.344;2022-11-15T05:25:38;137.32;;;61.40;;
59263;SDS011;45030;42.720;23.344;2022-11-15T05:28:03;121.93;;;52.40;;
59263;SDS011;45030;42.720;23.344;2022-11-15T05:30:29;110.03;;;47.22;;
59263;SDS011;45030;42.720;23.344;2022-11-15T05:32:54;96.70;;;42.65;;
59263;SDS011;45030;42.720;23.344;2022-11-15T05:35:24;107.35;;;44.58;;
59263;SDS011;45030;42.720;23.344;2022-11-15T05:37:52;110.75;;;43.58;;
59263;SDS011;45030;42.720;23.344;2022-11-15T05:40:18;102.68;;;49.42;;
59263;SDS011;45030;42.720;23.344;2022-11-15T05:42:43;121.88;;;49.33;;
59263;SDS011;45030;42.720;23.344;2022-11-15T05:45:09;126.82;;;54.22;;
59263;SDS011;45030;42.720;23.344;2022-11-15T05:47:35;126.45;;;52.25;;
59263;SDS011;45030;42.720;23.344;2022-11-15T05:50:00;134.88;;;53.65;;
59263;SDS011;45030;42.720;23.344;2022-11-15T05:52:28;115.32;;;52.70;;
59263;SDS011;45030;42.720;23.344;2022-11-15T05:54:54;135.98;;;57.92;;
59263;SDS011;45030;42.720;23.344;2022-11-15T05:57:20;139.40;;;59.25;;
59263;SDS011;45030;42.720;23.344;2022-11-15T05:59:45;172.45;;;73.57;;
59263;SDS011;45030;42.720;23.344;2022-11-15T06:02:11;156.82;;;68.20;;
59263;SDS011;45030;42.720;23.344;2022-11-15T06:04:36;148.88;;;69.10;;
59263;SDS011;45030;42.720;23.344;2022-11-15T06:07:01;134.70;;;64.25;;
59263;SDS011;45030;42.720;23.344;2022-11-15T06:09:27;143.38;;;60.05;;
59263;SDS011;45030;42.720;23.344;2022-11-15T06:11:52;135.07;;;59.35;;
59263;SDS011;45030;42.720;23.344;2022-11-15T06:14:17;127.70;;;58.05;;
59263;SDS011;45030;42.720;23.344;2022-11-15T06:16:43;135.07;;;59.47;;
59263;SDS011;45030;42.720;23.344;2022-11-15T06:19:08;130.38;;;54.33;;
59263;SDS011;45030;42.720;23.344;2022-11-15T06:21:33;119.65;;;52.90;;
59263;SDS011;45030;42.720;23.344;2022-11-15T06:23:59;120.63;;;54.72;;
59263;SDS011;45030;42.720;23.344;2022-11-15T06:26:24;103.55;;;51.42;;
59263;SDS011;45030;42.720;23.344;2022-11-15T06:28:49;118.28;;;53.08;;
59263;SDS011;45030;42.720;23.344;2022-11-15T06:31:14;131.68;;;61.42;;
59263;SDS011;45030;42.720;23.344;2022-11-15T06:33:40;120.38;;;55.17;;
59263;SDS011;45030;42.720;23.344;2022-11-15T06:36:06;117.28;;;56.38;;
59263;SDS011;45030;42.720;23.344;2022-11-15T06:38:32;112.32;;;52.88;;
59263;SDS011;45030;42.720;23.344;2022-11-15T06:41:30;109.85;;;52.53;;
59263;SDS011;45030;42.720;23.344;2022-11-15T06:43:48;108.20;;;51.88;;
59263;SDS011;45030;42.720;23.344;2022-11-15T06:46:14;114.40;;;53.72;;
59263;SDS011;45030;42.720;23.344;2022-11-15T06:48:39;117.20;;;53.15;;
59263;SDS011;45030;42.720;23.344;2022-11-15T06:51:04;123.55;;;56.85;;
59263;SDS011;45030;42.720;23.344;2022-11-15T06:53:30;127.93;;;59.65;;
59263;SDS011;45030;42.720;23.344;2022-11-15T06:56:03;138.07;;;66.40;;
59263;SDS011;45030;42.720;23.344;2022-11-15T06:58:28;130.98;;;59.00;;
59263;SDS011;45030;42.720;23.344;2022-11-15T07:00:58;123.47;;;54.75;;
59263;SDS011;45030;42.720;23.344;2022-11-15T07:03:24;127.07;;;56.05;;
59263;SDS011;45030;42.720;23.344;2022-11-15T07:05:53;119.07;;;50.58;;
59263;SDS011;45030;42.720;23.344;2022-11-15T07:08:19;111.50;;;48.78;;
59263;SDS011;45030;42.720;23.344;2022-11-15T07:10:44;126.35;;;50.83;;
59263;SDS011;45030;42.720;23.344;2022-11-15T07:13:09;131.93;;;52.85;;
59263;SDS011;45030;42.720;23.344;2022-11-15T07:15:35;114.38;;;46.45;;
59263;SDS011;45030;42.720;23.344;2022-11-15T07:18:00;113.97;;;53.95;;
59263;SDS011;45030;42.720;23.344;2022-11-15T07:20:26;105.72;;;47.08;;
59263;SDS011;45030;42.720;23.344;2022-11-15T07:22:51;77.10;;;36.40;;
59263;SDS011;45030;42.720;23.344;2022-11-15T07:25:23;73.60;;;30.15;;
59263;SDS011;45030;42.720;23.344;2022-11-15T07:27:55;68.30;;;26.58;;
59263;SDS011;45030;42.720;23.344;2022-11-15T07:30:21;60.15;;;26.73;;
59263;SDS011;45030;42.720;23.344;2022-11-15T07:32:46;61.53;;;27.45;;
59263;SDS011;45030;42.720;23.344;2022-11-15T07:35:11;58.65;;;27.75;;
59263;SDS011;45030;42.720;23.344;2022-11-15T07:37:37;68.50;;;26.88;;
59263;SDS011;45030;42.720;23.344;2022-11-15T07:40:02;63.65;;;28.65;;
59263;SDS011;45030;42.720;23.344;2022-11-15T07:42:27;59.70;;;25.65;;
59263;SDS011;45030;42.720;23.344;2022-11-15T07:45:11;64.72;;;28.65;;
59263;SDS011;45030;42.720;23.344;2022-11-15T07:47:36;68.43;;;28.13;;
59263;SDS011;45030;42.720;23.344;2022-11-15T07:50:02;69.20;;;29.85;;
59263;SDS011;45030;42.720;23.344;2022-11-15T07:52:27;61.58;;;27.50;;
59263;SDS011;45030;42.720;23.344;2022-11-15T07:54:52;56.40;;;26.70;;
59263;SDS011;45030;42.720;23.344;2022-11-15T07:57:17;68.35;;;27.33;;
59263;SDS011;45030;42.720;23.344;2022-11-15T07:59:43;63.42;;;27.38;;
59263;SDS011;45030;42.720;23.344;2022-11-15T08:02:08;64.40;;;26.95;;
59263;SDS011;45030;42.720;23.344;2022-11-15T08:04:33;63.00;;;26.13;;
59263;SDS011;45030;42.720;23.344;2022-11-15T08:06:59;58.47;;;25.20;;
59263;SDS011;45030;42.720;23.344;2022-11-15T08:09:24;53.17;;;25.92;;
59263;SDS011;45030;42.720;23.344;2022-11-15T08:11:49;57.92;;;26.80;;
59263;SDS011;45030;42.720;23.344;2022-11-15T08:14:15;65.88;;;28.30;;
59263;SDS011;45030;42.720;23.344;2022-11-15T08:16:40;59.92;;;26.90;;
59263;SDS011;45030;42.720;23.344;2022-11-15T08:19:05;58.55;;;27.38;;
59263;SDS011;45030;42.720;23.344;2022-11-15T08:21:30;66.70;;;31.33;;
59263;SDS011;45030;42.720;23.344;2022-11-15T08:23:55;66.20;;;29.55;;
59263;SDS011;45030;42.720;23.344;2022-11-15T08:26:21;61.92;;;28.90;;
59263;SDS011;45030;42.720;23.344;2022-11-15T08:28:46;61.35;;;27.48;;
59263;SDS011;45030;42.720;23.344;2022-11-15T08:31:15;59.33;;;26.95;;
59263;SDS011;45030;42.720;23.344;2022-11-15T08:33:41;52.90;;;24.23;;
59263;SDS011;45030;42.720;23.344;2022-11-15T08:36:10;61.47;;;28.13;;
59263;SDS011;45030;42.720;23.344;2022-11-15T08:38:36;56.80;;;26.10;;
59263;SDS011;45030;42.720;23.344;2022-11-15T08:41:03;58.08;;;27.45;;
59263;SDS011;45030;42.720;23.344;2022-11-15T08:43:28;62.90;;;25.65;;
59263;SDS011;45030;42.720;23.344;2022-11-15T08:45:57;65.35;;;29.45;;
59263;SDS011;45030;42.720;23.344;2022-11-15T08:48:22;67.65;;;31.27;;
59263;SDS011;45030;42.720;23.344;2022-11-15T08:50:48;69.72;;;29.50;;
59263;SDS011;45030;42.720;23.344;2022-11-15T08:53:13;83.07;;;35.08;;
59263;SDS011;45030;42.720;23.344;2022-11-15T08:55:39;59.65;;;28.40;;
59263;SDS011;45030;42.720;23.344;2022-11-15T08:58:04;57.03;;;26.67;;
59263;SDS011;45030;42.720;23.344;2022-11-15T09:00:30;58.67;;;27.85;;
59263;SDS011;45030;42.720;23.344;2022-11-15T09:02:55;55.42;;;26.75;;
59263;SDS011;45030;42.720;23.344;2022-11-15T09:05:20;54.65;;;26.95;;
59263;SDS011;45030;42.720;23.344;2022-11-15T09:07:45;59.08;;;28.80;;
59263;SDS011;45030;42.720;23.344;2022-11-15T09:10:10;67.40;;;28.92;;
59263;SDS011;45030;42.720;23.344;2022-11-15T09:12:36;63.42;;;30.70;;
59263;SDS011;45030;42.720;23.344;2022-11-15T09:15:01;50.95;;;26.40;;
59263;SDS011;45030;42.720;23.344;2022-11-15T09:17:26;56.42;;;28.05;;
59263;SDS011;45030;42.720;23.344;2022-11-15T09:19:52;56.80;;;28.85;;
59263;SDS011;45030;42.720;23.344;2022-11-15T09:22:17;58.42;;;28.10;;
59263;SDS011;45030;42.720;23.344;2022-11-15T09:24:42;54.45;;;24.10;;
59263;SDS011;45030;42.720;23.344;2022-11-15T09:27:08;62.53;;;30.23;;
59263;SDS011;45030;42.720;23.344;2022-11-15T09:29:33;58.10;;;27.67;;
59263;SDS011;45030;42.720;23.344;2022-11-15T09:31:58;58.67;;;26.60;;
59263;SDS011;45030;42.720;23.344;2022-11-15T09:34:24;66.82;;;29.88;;
59263;SDS011;45030;42.720;23.344;2022-11-15T09:36:49;63.85;;;28.80;;
59263;SDS011;45030;42.720;23.344;2022-11-15T09:39:14;66.78;;;28.13;;
59263;SDS011;45030;42.720;23.344;2022-11-15T09:41:45;60.20;;;27.80;;
59263;SDS011;45030;42.720;23.344;2022-11-15T09:49:22;73.72;;;33.15;;
59263;SDS011;45030;42.720;23.344;2022-11-15T09:51:48;88.93;;;37.65;;
59263;SDS011;45030;42.720;23.344;2022-11-15T09:56:52;85.18;;;35.75;;
59263;SDS011;45030;42.720;23.344;2022-11-15T10:04:23;77.53;;;31.65;;
59263;SDS011;45030;42.720;23.344;2022-11-15T10:06:53;92.82;;;39.53;;
59263;SDS011;45030;42.720;23.344;2022-11-15T10:09:23;96.20;;;38.70;;
59263;SDS011;45030;42.720;23.344;2022-11-15T10:11:49;86.47;;;35.60;;
59263;SDS011;45030;42.720;23.344;2022-11-15T10:14:16;69.90;;;29.40;;
59263;SDS011;45030;42.720;23.344;2022-11-15T10:22:26;76.25;;;37.33;;
59263;SDS011;45030;42.720;23.344;2022-11-15T10:25:37;86.13;;;37.97;;
59263;SDS011;45030;42.720;23.344;2022-11-15T10:27:38;77.85;;;34.80;;
59263;SDS011;45030;42.720;23.344;2022-11-15T10:30:06;77.43;;;36.63;;
59263;SDS011;45030;42.720;23.344;2022-11-15T10:32:35;77.15;;;35.88;;
59263;SDS011;45030;42.720;23.344;2022-11-15T10:35:01;75.43;;;38.35;;
59263;SDS011;45030;42.720;23.344;2022-11-15T10:37:40;68.70;;;32.78;;
59263;SDS011;45030;42.720;23.344;2022-11-15T10:40:12;81.95;;;38.35;;
59263;SDS011;45030;42.720;23.344;2022-11-15T10:42:39;72.28;;;34.00;;
59263;SDS011;45030;42.720;23.344;2022-11-15T10:45:14;79.43;;;36.70;;
59263;SDS011;45030;42.720;23.344;2022-11-15T10:47:47;78.03;;;38.15;;
59263;SDS011;45030;42.720;23.344;2022-11-15T10:50:26;68.63;;;33.95;;
59263;SDS011;45030;42.720;23.344;2022-11-15T10:52:51;68.25;;;33.45;;
59263;SDS011;45030;42.720;23.344;2022-11-15T10:57:48;61.58;;;31.15;;
59263;SDS011;45030;42.720;23.344;2022-11-15T11:02:47;60.45;;;33.35;;
59263;SDS011;45030;42.720;23.344;2022-11-15T11:05:41;72.65;;;40.25;;
59263;SDS011;45030;42.720;23.344;2022-11-15T11:10:34;74.35;;;36.88;;
59263;SDS011;45030;42.720;23.344;2022-11-15T11:13:21;80.15;;;38.17;;
59263;SDS011;45030;42.720;23.344;2022-11-15T11:15:48;77.55;;;38.40;;
59263;SDS011;45030;42.720;23.344;2022-11-15T11:18:23;78.07;;;39.85;;
59263;SDS011;45030;42.720;23.344;2022-11-15T11:20:54;76.53;;;35.90;;
59263;SDS011;45030;42.720;23.344;2022-11-15T11:26:22;66.55;;;34.33;;
59263;SDS011;45030;42.720;23.344;2022-11-15T11:37:04;68.95;;;34.85;;
59263;SDS011;45030;42.720;23.344;2022-11-15T11:42:26;68.75;;;34.70;;
59263;SDS011;45030;42.720;23.344;2022-11-15T11:47:30;64.63;;;36.25;;
59263;SDS011;45030;42.720;23.344;2022-11-15T11:52:53;72.18;;;36.20;;
59263;SDS011;45030;42.720;23.344;2022-11-15T11:55:20;79.85;;;41.88;;
59263;SDS011;45030;42.720;23.344;2022-11-15T12:00:22;104.43;;;56.17;;
59263;SDS011;45030;42.720;23.344;2022-11-15T12:08:56;69.05;;;41.35;;
59263;SDS011;45030;42.720;23.344;2022-11-15T12:13:44;70.30;;;38.40;;
59263;SDS011;45030;42.720;23.344;2022-11-15T12:18:39;64.55;;;35.20;;
59263;SDS011;45030;42.720;23.344;2022-11-15T12:21:16;63.00;;;35.55;;
59263;SDS011;45030;42.720;23.344;2022-11-15T12:23:44;59.83;;;34.55;;
59263;SDS011;45030;42.720;23.344;2022-11-15T12:26:14;53.95;;;32.50;;
59263;SDS011;45030;42.720;23.344;2022-11-15T12:28:46;54.38;;;30.95;;
59263;SDS011;45030;42.720;23.344;2022-11-15T12:31:24;51.58;;;32.42;;
59263;SDS011;45030;42.720;23.344;2022-11-15T12:33:54;51.78;;;29.77;;
59263;SDS011;45030;42.720;23.344;2022-11-15T12:38:55;53.88;;;30.65;;
59263;SDS011;45030;42.720;23.344;2022-11-15T12:41:22;52.55;;;30.67;;
59263;SDS011;45030;42.720;23.344;2022-11-15T12:43:48;52.63;;;30.02;;
59263;SDS011;45030;42.720;23.344;2022-11-15T12:46:21;53.33;;;31.30;;
59263;SDS011;45030;42.720;23.344;2022-11-15T12:51:12;50.40;;;29.80;;
59263;SDS011;45030;42.720;23.344;2022-11-15T12:53:37;50.65;;;30.05;;
59263;SDS011;45030;42.720;23.344;2022-11-15T12:58:51;59.72;;;34.00;;
59263;SDS011;45030;42.720;23.344;2022-11-15T13:09:49;48.30;;;28.63;;
59263;SDS011;45030;42.720;23.344;2022-11-15T13:11:51;44.30;;;27.65;;
59263;SDS011;45030;42.720;23.344;2022-11-15T13:17:01;49.72;;;28.25;;
59263;SDS011;45030;42.720;23.344;2022-11-15T13:19:26;47.92;;;28.63;;
59263;SDS011;45030;42.720;23.344;2022-11-15T13:21:51;51.55;;;28.60;;
59263;SDS011;45030;42.720;23.344;2022-11-15T13:24:37;52.17;;;28.77;;
59263;SDS011;45030;42.720;23.344;2022-11-15T13:27:09;53.75;;;31.65;;
59263;SDS011;45030;42.720;23.344;2022-11-15T13:29:34;48.67;;;29.15;;
59263;SDS011;45030;42.720;23.344;2022-11-15T13:32:00;46.35;;;28.40;;
59263;SDS011;45030;42.720;23.344;2022-11-15T13:34:29;50.67;;;29.63;;
59263;SDS011;45030;42.720;23.344;2022-11-15T13:36:57;53.65;;;31.58;;
59263;SDS011;45030;42.720;23.344;2022-11-15T13:39:25;50.50;;;27.95;;
59263;SDS011;45030;42.720;23.344;2022-11-15T13:41:51;48.10;;;29.23;;
59263;SDS011;45030;42.720;23.344;2022-11-15T13:44:24;47.67;;;26.77;;
59263;SDS011;45030;42.720;23.344;2022-11-15T13:47:00;46.92;;;27.02;;
59263;SDS011;45030;42.720;23.344;2022-11-15T13:49:28;59.00;;;32.72;;
59263;SDS011;45030;42.720;23.344;2022-11-15T13:51:54;61.58;;;32.00;;
59263;SDS011;45030;42.720;23.344;2022-11-15T13:54:40;59.55;;;31.73;;
59263;SDS011;45030;42.720;23.344;2022-11-15T13:57:10;59.75;;;37.35;;
59263;SDS011;45030;42.720;23.344;2022-11-15T13:59:44;64.47;;;34.00;;
59263;SDS011;45030;42.720;23.344;2022-11-15T14:02:12;62.58;;;34.88;;
59263;SDS011;45030;42.720;23.344;2022-11-15T14:04:38;66.18;;;36.85;;
59263;SDS011;45030;42.720;23.344;2022-11-15T14:07:04;59.20;;;35.50;;
59263;SDS011;45030;42.720;23.344;2022-11-15T14:12:01;64.05;;;35.25;;
59263;SDS011;45030;42.720;23.344;2022-11-15T14:14:28;83.22;;;39.50;;
59263;SDS011;45030;42.720;23.344;2022-11-15T14:16:54;69.30;;;39.63;;
59263;SDS011;45030;42.720;23.344;2022-11-15T14:24:30;64.03;;;34.15;;
59263;SDS011;45030;42.720;23.344;2022-11-15T14:26:56;72.30;;;37.25;;
59263;SDS011;45030;42.720;23.344;2022-11-15T14:29:30;65.65;;;33.97;;
59263;SDS011;45030;42.720;23.344;2022-11-15T14:34:59;62.28;;;33.13;;
59263;SDS011;45030;42.720;23.344;2022-11-15T14:37:26;70.97;;;36.67;;
59263;SDS011;45030;42.720;23.344;2022-11-15T14:39:52;65.50;;;35.38;;
59263;SDS011;45030;42.720;23.344;2022-11-15T14:42:17;63.17;;;32.45;;
59263;SDS011;45030;42.720;23.344;2022-11-15T14:44:43;64.65;;;31.50;;
59263;SDS011;45030;42.720;23.344;2022-11-15T14:47:08;67.88;;;33.55;;
59263;SDS011;45030;42.720;23.344;2022-11-15T14:49:33;65.82;;;33.60;;
59263;SDS011;45030;42.720;23.344;2022-11-15T14:51:59;70.63;;;35.80;;
59263;SDS011;45030;42.720;23.344;2022-11-15T14:54:24;84.93;;;44.13;;
59263;SDS011;45030;42.720;23.344;2022-11-15T14:56:49;92.63;;;44.30;;
59263;SDS011;45030;42.720;23.344;2022-11-15T14:59:14;73.22;;;37.30;;
59263;SDS011;45030;42.720;23.344;2022-11-15T15:01:39;65.78;;;33.42;;
59263;SDS011;45030;42.720;23.344;2022-11-15T15:04:05;72.93;;;37.05;;
59263;SDS011;45030;42.720;23.344;2022-11-15T15:06:30;72.40;;;37.63;;
59263;SDS011;45030;42.720;23.344;2022-11-15T15:08:55;65.40;;;34.40;;
59263;SDS011;45030;42.720;23.344;2022-11-15T15:11:22;70.32;;;34.70;;
59263;SDS011;45030;42.720;23.344;2022-11-15T15:13:48;73.40;;;33.65;;
59263;SDS011;45030;42.720;23.344;2022-11-15T15:16:13;74.57;;;37.70;;
59263;SDS011;45030;42.720;23.344;2022-11-15T15:18:38;87.80;;;43.40;;
59263;SDS011;45030;42.720;23.344;2022-11-15T15:21:04;94.15;;;43.75;;
59263;SDS011;45030;42.720;23.344;2022-11-15T15:26:03;81.80;;;37.97;;
59263;SDS011;45030;42.720;23.344;2022-11-15T15:28:28;79.00;;;40.17;;
59263;SDS011;45030;42.720;23.344;2022-11-15T15:30:53;83.32;;;39.25;;
59263;SDS011;45030;42.720;23.344;2022-11-15T15:33:18;81.80;;;39.05;;
59263;SDS011;45030;42.720;23.344;2022-11-15T15:35:44;81.63;;;36.90;;
59263;SDS011;45030;42.720;23.344;2022-11-15T15:38:12;76.13;;;41.75;;
59263;SDS011;45030;42.720;23.344;2022-11-15T15:40:38;85.28;;;38.45;;
59263;SDS011;45030;42.720;23.344;2022-11-15T15:43:03;79.65;;;41.42;;
59263;SDS011;45030;42.720;23.344;2022-11-15T15:45:28;101.70;;;48.00;;
59263;SDS011;45030;42.720;23.344;2022-11-15T15:47:54;117.90;;;49.17;;
59263;SDS011;45030;42.720;23.344;2022-11-15T15:50:27;109.43;;;48.45;;
59263;SDS011;45030;42.720;23.344;2022-11-15T15:52:53;144.30;;;61.67;;
59263;SDS011;45030;42.720;23.344;2022-11-15T15:55:19;142.32;;;63.20;;
59263;SDS011;45030;42.720;23.344;2022-11-15T15:57:44;139.07;;;63.78;;
59263;SDS011;45030;42.720;23.344;2022-11-15T16:00:10;135.18;;;63.38;;
59263;SDS011;45030;42.720;23.344;2022-11-15T16:02:35;141.13;;;62.85;;